createdAt,value
2023-05-15T00:08:04.642Z,93
2023-05-15T00:18:04.897Z,94
2023-05-15T00:38:05.197Z,94
2023-05-15T00:48:06.036Z,96
2023-05-15T00:58:06.702Z,96
2023-05-15T01:08:07.805Z,96
2023-05-15T01:28:09.443Z,97
2023-05-15T01:38:10.152Z,97
2023-05-15T01:48:10.594Z,97
2023-05-15T01:58:10.756Z,98
2023-05-15T02:08:11.247Z,98
2023-05-15T02:28:12.403Z,98
2023-05-15T02:38:12.842Z,100
2023-05-15T02:48:13.919Z,99
2023-05-15T02:58:14.597Z,100
2023-05-15T03:08:15.578Z,100
2023-05-15T03:18:17.217Z,100
2023-05-15T03:28:16.575Z,100
2023-05-15T03:38:17.538Z,100
2023-05-15T03:48:18.508Z,100
2023-05-15T03:58:18.947Z,100
2023-05-15T04:08:19.636Z,100
2023-05-15T04:18:20.563Z,100
2023-05-15T04:28:21.293Z,100
2023-05-15T04:38:21.488Z,100
2023-05-15T04:48:21.725Z,100
2023-05-15T04:58:22.564Z,100
2023-05-15T05:08:23.328Z,100
2023-05-15T05:18:23.509Z,100
2023-05-15T05:28:23.622Z,100
2023-05-15T05:38:24.226Z,100
2023-05-15T05:48:24.536Z,100
2023-05-15T05:58:26.378Z,100
2023-05-15T06:08:26.620Z,100
2023-05-15T06:28:28.172Z,100
2023-05-15T06:38:29.201Z,100
2023-05-15T06:48:29.694Z,100
2023-05-15T06:58:30.046Z,100
2023-05-15T07:08:30.826Z,100
2023-05-15T07:18:31.607Z,100
2023-05-15T07:28:31.974Z,100
2023-05-15T07:38:33.089Z,99
2023-05-15T07:48:34.097Z,98
2023-05-15T07:58:34.748Z,97
2023-05-15T08:08:35.681Z,97
2023-05-15T08:18:36.694Z,96
2023-05-15T08:28:37.092Z,95
2023-05-15T08:38:37.295Z,95
2023-05-15T08:48:37.951Z,92
2023-05-15T08:58:38.101Z,90
2023-05-15T09:08:38.822Z,86
2023-05-15T09:18:39.036Z,83
2023-05-15T09:28:39.203Z,80
2023-05-15T09:38:39.993Z,79
2023-05-15T09:48:40.140Z,77
2023-05-15T09:58:40.641Z,76
2023-05-15T10:08:41.550Z,75
2023-05-15T10:28:44.149Z,69
2023-05-15T10:38:42.367Z,67
2023-05-15T10:48:42.988Z,63
2023-05-15T10:58:43.310Z,61
2023-05-15T11:08:43.570Z,60
2023-05-15T11:18:44.058Z,63
2023-05-15T11:28:44.648Z,59
2023-05-15T11:38:45.391Z,62
2023-05-15T11:48:45.670Z,60
2023-05-15T12:08:46.255Z,57
2023-05-15T12:18:46.692Z,57
2023-05-15T12:28:47.319Z,54
2023-05-15T12:38:47.733Z,56
2023-05-15T12:48:48.610Z,56
2023-05-15T12:58:49.233Z,56
2023-05-15T13:08:49.447Z,56
2023-05-15T13:18:50.055Z,55
2023-05-15T13:28:50.272Z,55
2023-05-15T13:38:51.166Z,54
2023-05-15T13:48:51.912Z,53
2023-05-15T13:58:52.826Z,54
2023-05-15T14:08:53.256Z,61
2023-05-15T14:18:53.439Z,63
2023-05-15T14:38:54.039Z,63
2023-05-15T14:58:54.974Z,60
2023-05-15T15:08:55.672Z,60
2023-05-15T15:18:55.852Z,62
2023-05-15T15:28:56.488Z,61
2023-05-15T15:38:56.779Z,63
2023-05-15T15:48:57.526Z,65
2023-05-15T15:58:58.324Z,68
2023-05-15T16:08:58.991Z,69
2023-05-15T16:19:00.030Z,69
2023-05-15T16:29:00.241Z,70
2023-05-15T16:39:00.601Z,71
2023-05-15T16:49:01.578Z,70
2023-05-15T17:09:03.038Z,69
2023-05-15T17:19:03.182Z,72
2023-05-15T17:29:03.853Z,73
2023-05-15T17:39:04.575Z,75
2023-05-15T17:39:26.429Z,75
2023-05-15T17:49:10.873Z,76
2023-05-15T18:09:11.494Z,78
2023-05-15T18:29:13.165Z,79
2023-05-15T18:49:15.311Z,81
2023-05-15T19:09:16.538Z,82
2023-05-15T19:29:17.605Z,84
2023-05-15T19:49:18.131Z,87
2023-05-15T20:09:19.027Z,87
2023-05-15T20:39:20.570Z,88
2023-05-15T20:49:21.485Z,89
2023-05-15T21:09:22.660Z,89
2023-05-15T21:29:23.414Z,89
2023-05-15T21:49:24.387Z,90
2023-05-15T22:09:25.117Z,93
2023-05-15T22:29:26.771Z,95
2023-05-15T23:09:28.775Z,98
